Sonic Adventure (DX): Overall Rankings

Records: Times | Rings | Scores | Races | Bosses | Freestyle
Leaders: Times | Rings | Scores | Races | Bosses | Freestyle | Overall
Rank Player Percent Points Date
1 Sonicspeedruner 98.4% 252 05-03-15
2 Gamepro011 97.6% 387 05-03-15
3 DarkPolarNight 96.3% 593 05-03-15
4 Jawzun 93.9% 986 05-03-15
5 Dashjump 91.8% 1330 05-03-15
6 DarkspinesSonic 90.8% 1489 05-03-15
7 Avento128bits 90.3% 1568 05-03-15
8 ike6252 90.1% 1597 05-03-15
9 F-Man 86.0% 2266 05-03-15
10 HyperSonic7701 85.1% 2419 05-03-15
11 Coolfansonic 84.0% 2601 05-03-15
12 yoshifan 83.5% 2680 05-03-15
13 frankoredstrato 83.1% 2745 05-03-15
14 TheRealShadnic 82.1% 2907 05-03-15
15 francisco 82.1% 2908 05-03-15
16 Marth 81.7% 2963 05-03-15
17 InferSaime 80.4% 3181 05-03-15
18 PfoSonic 80.0% 3240 05-03-15
19 Paragod 79.5% 3322 05-03-15
20 THC98 78.4% 3511 05-03-15
21 Stefan 76.2% 3856 05-03-15
22 RPGnutter 74.0% 4227 05-03-15
23 bertin 73.9% 4234 05-03-15
24 sonicam 71.6% 4603 05-03-15
25 Combo 65.6% 5583 05-03-15
26 SkyLights 64.5% 5771 05-03-15
27 xXMegaManXx 63.6% 5912 05-03-15
28 Diamond 62.8% 6043 05-03-15
29 GerbilSoft 60.3% 6444 05-03-15
30 OmegaDJ 60.3% 6448 05-03-15
31 Auriman1 60.2% 6461 05-03-15
32 drminus 59.5% 6575 05-03-15
33 magnum12 59.3% 6612 05-03-15
34 Dawid8404 59.1% 6639 05-03-15
35 Thorn 57.2% 6947 05-03-15
36 P1 Pause 57.0% 6989 05-03-15
37 mike89 55.7% 7191 05-03-15
38 chainchumper 54.1% 7464 05-03-15
39 Dave Cramer 53.9% 7496 05-03-15
39 Groudon199 53.9% 7496 05-03-15
41 Parax 53.3% 7581 05-03-15
42 Shadow Jacky 52.8% 7674 05-03-15
43 Psymar 47.6% 8519 05-03-15
44 Chao_Fan 45.8% 8810 05-03-15
45 Arch 45.5% 8849 05-03-15
46 mauserman 45.4% 8864 05-03-15
47 Quartz 44.7% 8993 05-03-15
48 teamblackarms 43.6% 9158 05-03-15
49 Psyknux 43.5% 9180 05-03-15
50 James_Bertolli 42.9% 9282 05-03-15
51 NintenDan 42.3% 9371 05-03-15
52 Fr3nZy 41.8% 9460 05-03-15
53 Webber3000 41.8% 9462 05-03-15
54 Turbos 41.6% 9487 05-03-15
55 Ring Rush 41.6% 9492 05-03-15
56 Cream147 41.3% 9535 05-03-15
57 videogamemaster777 41.2% 9548 05-03-15
58 Siavash Tazari 41.0% 9583 05-03-15
59 buddychaos0415 40.6% 9659 05-03-15
60 SadisticMystic 39.9% 9766 05-03-15
61 eggFL 39.1% 9904 05-03-15
62 Redd 38.6% 9976 05-03-15
63 SB737 37.5% 10164 05-03-15
64 supersonicfan 36.3% 10357 05-03-15
65 FuzZerd 35.3% 10521 05-03-15
66 elecmouse101 34.5% 10644 05-03-15
67 supersonic465 34.4% 10666 05-03-15
68 Austinf 33.6% 10791 05-03-15
69 metanightmare22 32.9% 10910 05-03-15
70 Aitamen 32.9% 10913 05-03-15
71 dabestgamer 32.7% 10935 05-03-15
72 MiStEr_ShAoLiN 32.6% 10955 05-03-15
73 Cyan Ryan 32.5% 10962 05-03-15
74 itsPersonnal 31.8% 11082 05-03-15
75 Cybrax 30.9% 11230 05-03-15
76 Andrea Ritsu 30.6% 11285 05-03-15
77 danieldude 30.5% 11299 05-03-15
78 SilvertheAlmighty 30.4% 11308 05-03-15
79 VMU Player Banned 28.8% 11570 05-03-15
80 Omega Rafael Santos 28.4% 11633 05-03-15
81 Staf 28.1% 11682 05-03-15
82 The T 27.9% 11716 05-03-15
83 EngiNerd 27.6% 11766 05-03-15
84 lordmetalsonic 26.9% 11886 05-03-15
85 Hipertails12 26.7% 11906 05-03-15
86 welldooder64 26.2% 11993 05-03-15
87 GreatStar 26.2% 11994 05-03-15
88 Sondow 26.2% 11998 05-03-15
89 The Great Lord Mick 25.9% 12044 05-03-15
90 Mastakirby 25.9% 12050 05-03-15
91 LinksDarkArrows 25.7% 12074 05-03-15
92 Nimrod 25.5% 12116 05-03-15
93 Skylace 24.8% 12226 05-03-15
94 Rolken 23.3% 12459 05-03-15
95 Xia 21.8% 12710 05-03-15
96 Kogen Player Banned 21.7% 12724 05-03-15
97 Spinballwizard 21.6% 12744 05-03-15
98 Don 21.3% 12788 05-03-15
99 Miles9999 21.2% 12800 05-03-15
100 Cutiefox 21.2% 12804 05-03-15
101 f0rever_zer0 21.1% 12828 05-03-15
102 Game_Complete 21.1% 12831 05-03-15
103 andres430 20.4% 12939 05-03-15
104 Cruizer 20.3% 12952 05-03-15
105 iSonicKid2K 20.1% 12986 05-03-15
106 SADXTryHard 19.8% 13042 05-03-15
107 GarnetPrincess 19.4% 13105 05-03-15
108 knuckles_sonic8 18.8% 13200 05-03-15
109 Team_Yoshi 18.3% 13284 05-03-15
110 KinkyCadence 18.0% 13323 05-03-15
111 The Knuckles Chao 17.8% 13361 05-03-15
112 Termon 17.7% 13380 05-03-15
113 FoxBoy 17.6% 13388 05-03-15
114 LittleBigness 17.3% 13437 05-03-15
115 SonicWinDX 17.1% 13470 05-03-15
116 Sonic Singularity 15.5% 13734 05-03-15
117 Pokemonmaster888 15.5% 13740 05-03-15
118 BigAL49 14.5% 13905 05-03-15
119 SilverSonic 14.3% 13934 05-03-15
120 MPit08 14.2% 13947 05-03-15
121 WeegeeZV 14.1% 13967 05-03-15
122 Mo Player Banned 14.0% 13976 05-03-15
123 Cod4Scopes 13.5% 14068 05-03-15
124 HyperSonic64 13.2% 14101 05-03-15
125 booo95 13.2% 14115 05-03-15
126 Chawkk 13.1% 14132 05-03-15
127 paulie9990 12.9% 14162 05-03-15
127 SuperSonic101 12.9% 14162 05-03-15
129 Hunters13 12.9% 14165 05-03-15
130 Maxinfamily 12.6% 14199 05-03-15
131 Flying Fox 12.5% 14229 05-03-15
132 PsyBorg 12.5% 14230 05-03-15
133 Kanimayo_Jp 12.4% 14236 05-03-15
134 BrokenArthritis 12.3% 14250 05-03-15
135 LilZero 12.1% 14284 05-03-15
136 a_moustache 11.8% 14340 05-03-15
137 Therio 11.7% 14345 05-03-15
138 Drakodan 11.7% 14358 05-03-15
139 sonicspeed 11.6% 14366 05-03-15
140 douglas 11.5% 14390 05-03-15
141 Matt_TY 11.2% 14442 05-03-15
142 joecoolgames 10.5% 14541 05-03-15
143 Cooljay 10.5% 14544 05-03-15
144 SeaWolf 10.4% 14560 05-03-15
145 TFEC Headshot 9.9% 14644 05-03-15
146 welshmoose05 9.8% 14661 05-03-15
147 crazy1993 9.5% 14703 05-03-15
148 Mcshuggets 9.5% 14706 05-03-15
149 videogamer1014 9.2% 14754 05-03-15
150 imazor017 9.2% 14765 05-03-15
151 nuckrieg 9.0% 14787 05-03-15
152 niscool 9.0% 14794 05-03-15
153 SonicAD 9.0% 14795 05-03-15
154 SirTobbii 8.9% 14812 05-03-15
155 Shadowthegreat 8.7% 14839 05-03-15
155 superjupi 8.7% 14839 05-03-15
157 SaviourDC 8.4% 14886 05-03-15
158 iarebored 8.4% 14891 05-03-15
159 sonamyfan666 8.3% 14903 05-03-15
160 Werey 8.2% 14915 05-03-15
161 SonicKnuckles 8.2% 14927 05-03-15
162 adf 7.9% 14974 05-03-15
163 ArcticDragon 7.8% 14982 05-03-15
164 Megaman EXE565 7.7% 15002 05-03-15
165 Platformer 7.4% 15056 05-03-15
166 Mariobutch 7.3% 15061 05-03-15
167 FocusSight64 7.3% 15071 05-03-15
168 wheatrich 7.2% 15086 05-03-15
169 timpkmn89 7.2% 15089 05-03-15
170 Swift Hobo 7.1% 15093 05-03-15
171 Rickyman48 7.0% 15112 05-03-15
172 KitsuneYamaro 6.7% 15160 05-03-15
173 Triseena 6.6% 15180 05-03-15
174 CyberShadow 6.5% 15204 05-03-15
175 slade23 6.4% 15221 05-03-15
176 dShadow 6.4% 15222 05-03-15
176 Starlight Sable 6.4% 15222 05-03-15
178 IsisDazs 6.2% 15251 05-03-15
179 BlankTH 6.0% 15278 05-03-15
180 Monkeh 5.8% 15320 05-03-15
181 Richied 5.7% 15328 05-03-15
182 DaDude 5.6% 15348 05-03-15
183 sonicd5 5.5% 15365 05-03-15
184 Zip 5.4% 15372 05-03-15
185 Kirbymon30 5.1% 15424 05-03-15
185 tal39h 5.1% 15424 05-03-15
187 soniccoloursunleashed 4.8% 15474 05-03-15
188 Drflash55 4.8% 15477 05-03-15
189 Yish 4.6% 15501 05-03-15
190 neaolas 4.6% 15505 05-03-15
191 Bass 4.6% 15506 05-03-15
192 UninspiredUsername 4.5% 15520 05-03-15
193 superiorsonic 4.5% 15522 05-03-15
194 Sonicsuperstar1 4.5% 15523 05-03-15
195 zapp 4.5% 15530 05-03-15
196 gamefreak1292 4.4% 15543 05-03-15
197 SonicU260 4.1% 15593 05-03-15
198 Chaos_Overlord 4.1% 15595 05-03-15
199 ethmar 4.0% 15599 05-03-15
200 TakaRikka 4.0% 15611 05-03-15
201 Valfore 3.9% 15618 05-03-15
202 ShinigamiMachine 3.8% 15643 05-03-15
203 Regano1000 3.7% 15656 05-03-15
204 MK 3.6% 15672 05-03-15
205 Ace747 3.5% 15685 05-03-15
206 Illidan 3.2% 15732 05-03-15
207 Venick409 3.1% 15746 05-03-15
208 Brian_pso 3.1% 15756 05-03-15
209 Sithwarrior26 3.0% 15764 05-03-15
210 ingx24 2.9% 15783 05-03-15
210 TheChaosEmeraIds 2.9% 15783 05-03-15
212 SkyBon 2.8% 15795 05-03-15
213 Nickson98 2.8% 15796 05-03-15
214 Fozer 2.7% 15809 05-03-15
215 FSSRandomvids 2.7% 15810 05-03-15
216 sonic29887 2.7% 15814 05-03-15
217 Colomb_30 2.7% 15818 05-03-15
218 TheUltraBlur 2.6% 15833 05-03-15
219 1stKirbyever 2.5% 15845 05-03-15
220 Th4tN1nj4Turtl3 2.3% 15877 05-03-15
221 Cort_pso 2.3% 15879 05-03-15
222 Doom-9 2.3% 15886 05-03-15
223 ieatatsonic 2.2% 15893 05-03-15
224 Mariosonic15 2.2% 15896 05-03-15
225 SuperSonic71087 2.2% 15905 05-03-15
226 MStitomix 2.1% 15911 05-03-15
227 HermitHelmet 2.1% 15918 05-03-15
228 Artie 2.0% 15930 05-03-15
229 Got4n 2.0% 15931 05-03-15
230 Jose_15 1.9% 15941 05-03-15
230 Questionguy555 1.9% 15941 05-03-15
232 djmat 1.8% 15955 05-03-15
233 sonicandamy 1.7% 15974 05-03-15
233 SuperSonicfan9595 1.7% 15974 05-03-15
235 LancexExWx 1.7% 15980 05-03-15
236 son1cgu1tar 1.7% 15984 05-03-15
237 Heroes_Hater 1.7% 15986 05-03-15
238 Paixii 1.6% 15989 05-03-15
239 BallzeH 1.5% 16006 05-03-15
240 Mankster101 1.5% 16011 05-03-15
241 BecauseWarAnvil 1.5% 16015 05-03-15
242 Jamixesa 1.5% 16016 05-03-15
243 Crydio 1.4% 16021 05-03-15
244 Shanekilz 1.4% 16025 05-03-15
245 SpiritDragon1995 1.4% 16026 05-03-15
246 ReuelBrony 1.4% 16033 05-03-15
247 stanski 1.3% 16039 05-03-15
248 MarewBFN 1.3% 16043 05-03-15
249 Sonique Hedgehog 1.3% 16048 05-03-15
250 Blue Infamy 1.2% 16056 05-03-15
251 p0ker 1.2% 16057 05-03-15
252 ErrortheCucco 1.2% 16066 05-03-15
253 Arthas 1.1% 16069 05-03-15
253 Rikum22 1.1% 16069 05-03-15
255 sonic1001 1.1% 16077 05-03-15
256 WingedInsignia 1.1% 16081 05-03-15
257 syco1098 1.1% 16084 05-03-15
258 AJSIV 1.0% 16087 05-03-15
259 Sonic the Hedgehod16 1.0% 16089 05-03-15
260 sonicfan9 1.0% 16092 05-03-15
261 Calfd 1.0% 16093 05-03-15
262 HHNNBBHHN 0.9% 16103 05-03-15
263 BlackArmsShadow 0.9% 16104 05-03-15
264 themachoman202 0.9% 16109 05-03-15
265 Ben1502 0.9% 16115 05-03-15
266 Greham Adelphis 0.9% 16116 05-03-15
266 MastaToken 0.9% 16116 05-03-15
268 shadowblast63 Player Banned 0.9% 16117 05-03-15
269 Fivavoa 0.8% 16118 05-03-15
270 Mr. Jones 0.8% 16119 05-03-15
271 arcfx1985 0.8% 16121 05-03-15
271 darkstarblaze 0.8% 16121 05-03-15
271 ptorflaxendrosis 0.8% 16121 05-03-15
274 Gvozdevik 0.8% 16125 05-03-15
274 Knuckles 0.8% 16125 05-03-15
276 FlandreScarlet9999vr 0.8% 16126 05-03-15
277 Zeldocto 0.8% 16131 05-03-15
278 KaM Mark MaK 0.7% 16135 05-03-15
279 BeeAwwb 0.7% 16139 05-03-15
280 ShadouZaHejjihoggu 0.7% 16142 05-03-15
281 Sonic62 0.7% 16148 05-03-15
282 darkersupershadic 0.6% 16151 05-03-15
283 Sogeking 0.6% 16152 05-03-15
284 dragondragon18 0.6% 16155 05-03-15
284 Shadygamerfreak 0.6% 16155 05-03-15
286 Sarger001 0.6% 16156 05-03-15
286 SonicK100 0.6% 16156 05-03-15
288 Grady219 0.6% 16157 05-03-15
289 Jawaah 0.6% 16161 05-03-15
290 Antek 0.6% 16165 05-03-15
291 SilverK 0.6% 16166 05-03-15
292 Klaus 0.5% 16167 05-03-15
293 SpinDashMaster 0.5% 16171 05-03-15
294 BioShadow 0.5% 16172 05-03-15
295 Videogamer123 0.5% 16177 05-03-15
296 Egor305 0.4% 16191 05-03-15
296 oTaiIilLsS 0.4% 16191 05-03-15
298 Mad Andy 0.4% 16192 05-03-15
299 isaihtb11 0.4% 16193 05-03-15
300 OhNoes! 0.4% 16194 05-03-15
301 zaktu40 0.4% 16195 05-03-15
302 S-MS32X-S 0.4% 16197 05-03-15
303 gaara1234 0.4% 16198 05-03-15
304 gamed00d 0.3% 16199 05-03-15
305 Mister_Slick 0.3% 16209 05-03-15
306 Sonic06Fan 0.3% 16211 05-03-15
307 Rush Hero 0.3% 16212 05-03-15
308 SonicMega167 0.3% 16215 05-03-15
309 Iwannabelink 0.2% 16216 05-03-15
310 sonknuck23 0.2% 16221 05-03-15
311 DanielTheFalcon 0.2% 16226 05-03-15
311 gamer1245 0.2% 16226 05-03-15
313 Burningskull123 0.1% 16234 05-03-15
314 Sonicontherun 0.1% 16244 05-03-15
315 Lil_Dude 0.0% 16248 05-03-15
316 antiwwe 0.0% 16250 05-03-15
317 Cbwade15 0.0% 16254 05-03-15
317 Genuine Hedgehog 0.0% 16254 05-03-15
319 Tyrouble 0.0% 16257 05-03-15
320 MegabombBlade 0.0% 16264 05-03-15
320 neji_hyuuga 0.0% 16264 05-03-15
320 Over 0.0% 16264 05-03-15
320 sdj6707 Player Banned 0.0% 16264 05-03-15
320 Tran Sonic Fan Player Banned 0.0% 16264 05-03-15

This page is using the New Data Table System. [FUTURE]

Game ID: 3 | Category ID: 10
Hits: 3,216 | Hits This Month: 8 | DB Calls: 23 | Mem Usage: 5.45 MB | Time: 0.12s | Printable

The Sonic Center v3.9
Copyright 2003-2011 by The Sonic Center Team.